Annapolis, Washington
Current Conditions -  °F | °C
As of 3:55 PM on Saturday 22 Nov 2014 (Local Time) from KPWT Reporting Station
Clear Clear  
Wind Chill:   Ceiling: Unl
Heat Index:   Visibility: 10mi
Dew Point:   Wind: 3mph
Humidity: 82%   Direction: 190°S
Pressure: 29.95"   Gusts: NA
Location:  47.5378°N, 122.589°W
Report Text: KPWT 222355Z AUTO 19003KT 10SM CLR 09/06 A2995 RMK AO1 10110 20070 401100030 52027
Loading
Personal Weather Stations






























Interactive Weather Map New forecast layout! Learn more

10-Day Weather Forecast

Advertisements
Track Severe Weather on mobile